sensor_id;sensor_type;location;lat;lon;timestamp;P1;durP1;ratioP1;P2;durP2;ratioP2
16272;SDS011;8244;50.044;9.006;2023-05-14T00:02:28;8.55;;;6.38;;
16272;SDS011;8244;50.044;9.006;2023-05-14T00:07:31;11.02;;;8.48;;
16272;SDS011;8244;50.044;9.006;2023-05-14T00:12:33;12.23;;;8.50;;
16272;SDS011;8244;50.044;9.006;2023-05-14T00:17:35;11.60;;;7.55;;
16272;SDS011;8244;50.044;9.006;2023-05-14T00:22:38;12.05;;;8.80;;
16272;SDS011;8244;50.044;9.006;2023-05-14T00:27:40;11.35;;;7.55;;
16272;SDS011;8244;50.044;9.006;2023-05-14T00:32:42;10.68;;;8.90;;
16272;SDS011;8244;50.044;9.006;2023-05-14T00:37:45;12.27;;;7.82;;
16272;SDS011;8244;50.044;9.006;2023-05-14T00:42:46;14.45;;;9.70;;
16272;SDS011;8244;50.044;9.006;2023-05-14T00:47:48;11.45;;;8.07;;
16272;SDS011;8244;50.044;9.006;2023-05-14T00:52:51;11.25;;;8.70;;
16272;SDS011;8244;50.044;9.006;2023-05-14T00:57:53;10.30;;;7.53;;
16272;SDS011;8244;50.044;9.006;2023-05-14T01:02:57;12.73;;;7.28;;
16272;SDS011;8244;50.044;9.006;2023-05-14T01:08:03;10.25;;;6.97;;
16272;SDS011;8244;50.044;9.006;2023-05-14T01:13:12;12.18;;;7.47;;
16272;SDS011;8244;50.044;9.006;2023-05-14T01:18:22;18.67;;;7.65;;
16272;SDS011;8244;50.044;9.006;2023-05-14T01:23:26;16.17;;;7.75;;
16272;SDS011;8244;50.044;9.006;2023-05-14T01:28:29;11.35;;;6.93;;
16272;SDS011;8244;50.044;9.006;2023-05-14T01:33:34;8.90;;;6.40;;
16272;SDS011;8244;50.044;9.006;2023-05-14T01:38:39;9.25;;;6.50;;
16272;SDS011;8244;50.044;9.006;2023-05-14T01:43:44;10.60;;;6.72;;
16272;SDS011;8244;50.044;9.006;2023-05-14T01:48:49;11.05;;;6.18;;
16272;SDS011;8244;50.044;9.006;2023-05-14T01:53:52;7.90;;;5.78;;
16272;SDS011;8244;50.044;9.006;2023-05-14T01:58:54;8.88;;;5.40;;
16272;SDS011;8244;50.044;9.006;2023-05-14T02:03:56;11.43;;;6.60;;
16272;SDS011;8244;50.044;9.006;2023-05-14T02:08:59;9.30;;;5.47;;
16272;SDS011;8244;50.044;9.006;2023-05-14T02:14:00;10.85;;;7.28;;
16272;SDS011;8244;50.044;9.006;2023-05-14T02:19:02;12.02;;;6.70;;
16272;SDS011;8244;50.044;9.006;2023-05-14T02:24:05;11.88;;;6.05;;
16272;SDS011;8244;50.044;9.006;2023-05-14T02:29:07;8.23;;;6.05;;
16272;SDS011;8244;50.044;9.006;2023-05-14T02:34:09;9.38;;;7.57;;
16272;SDS011;8244;50.044;9.006;2023-05-14T02:39:12;9.25;;;7.28;;
16272;SDS011;8244;50.044;9.006;2023-05-14T02:44:13;12.35;;;7.30;;
16272;SDS011;8244;50.044;9.006;2023-05-14T02:49:15;9.90;;;7.22;;
16272;SDS011;8244;50.044;9.006;2023-05-14T02:54:18;11.20;;;6.25;;
16272;SDS011;8244;50.044;9.006;2023-05-14T02:59:20;12.10;;;7.20;;
16272;SDS011;8244;50.044;9.006;2023-05-14T03:04:23;9.98;;;7.03;;
16272;SDS011;8244;50.044;9.006;2023-05-14T03:09:26;11.05;;;7.35;;
16272;SDS011;8244;50.044;9.006;2023-05-14T03:14:28;13.82;;;7.47;;
16272;SDS011;8244;50.044;9.006;2023-05-14T03:19:29;12.25;;;7.65;;
16272;SDS011;8244;50.044;9.006;2023-05-14T03:24:33;10.07;;;6.93;;
16272;SDS011;8244;50.044;9.006;2023-05-14T03:29:35;9.35;;;6.85;;
16272;SDS011;8244;50.044;9.006;2023-05-14T03:34:36;11.65;;;7.25;;
16272;SDS011;8244;50.044;9.006;2023-05-14T03:39:39;10.45;;;7.22;;
16272;SDS011;8244;50.044;9.006;2023-05-14T03:44:41;8.20;;;6.22;;
16272;SDS011;8244;50.044;9.006;2023-05-14T03:49:43;13.55;;;7.57;;
16272;SDS011;8244;50.044;9.006;2023-05-14T03:54:46;10.93;;;7.05;;
16272;SDS011;8244;50.044;9.006;2023-05-14T03:59:48;12.45;;;7.30;;
16272;SDS011;8244;50.044;9.006;2023-05-14T04:04:49;9.35;;;6.53;;
16272;SDS011;8244;50.044;9.006;2023-05-14T04:09:52;9.73;;;7.10;;
16272;SDS011;8244;50.044;9.006;2023-05-14T04:14:55;11.93;;;7.28;;
16272;SDS011;8244;50.044;9.006;2023-05-14T04:19:57;11.30;;;7.20;;
16272;SDS011;8244;50.044;9.006;2023-05-14T04:25:00;10.10;;;6.53;;
16272;SDS011;8244;50.044;9.006;2023-05-14T04:30:02;11.43;;;7.10;;
16272;SDS011;8244;50.044;9.006;2023-05-14T04:35:06;11.00;;;7.00;;
16272;SDS011;8244;50.044;9.006;2023-05-14T04:40:10;8.00;;;6.00;;
16272;SDS011;8244;50.044;9.006;2023-05-14T04:45:12;8.63;;;5.20;;
16272;SDS011;8244;50.044;9.006;2023-05-14T04:50:14;8.35;;;5.38;;
16272;SDS011;8244;50.044;9.006;2023-05-14T04:55:17;6.68;;;5.60;;
16272;SDS011;8244;50.044;9.006;2023-05-14T05:00:19;7.28;;;5.07;;
16272;SDS011;8244;50.044;9.006;2023-05-14T05:05:21;8.68;;;5.35;;
16272;SDS011;8244;50.044;9.006;2023-05-14T05:10:24;8.77;;;5.25;;
16272;SDS011;8244;50.044;9.006;2023-05-14T05:15:26;6.78;;;4.68;;
16272;SDS011;8244;50.044;9.006;2023-05-14T05:20:27;7.25;;;4.95;;
16272;SDS011;8244;50.044;9.006;2023-05-14T05:25:31;10.32;;;4.85;;
16272;SDS011;8244;50.044;9.006;2023-05-14T05:30:33;9.35;;;4.60;;
16272;SDS011;8244;50.044;9.006;2023-05-14T05:35:34;5.43;;;3.72;;
16272;SDS011;8244;50.044;9.006;2023-05-14T05:40:38;5.80;;;3.83;;
16272;SDS011;8244;50.044;9.006;2023-05-14T05:45:39;4.47;;;3.42;;
16272;SDS011;8244;50.044;9.006;2023-05-14T05:50:41;7.30;;;3.70;;
16272;SDS011;8244;50.044;9.006;2023-05-14T05:55:45;5.40;;;3.30;;
16272;SDS011;8244;50.044;9.006;2023-05-14T06:00:46;5.82;;;3.67;;
16272;SDS011;8244;50.044;9.006;2023-05-14T06:05:48;5.30;;;3.10;;
16272;SDS011;8244;50.044;9.006;2023-05-14T06:10:52;6.05;;;2.92;;
16272;SDS011;8244;50.044;9.006;2023-05-14T06:15:54;4.43;;;2.92;;
16272;SDS011;8244;50.044;9.006;2023-05-14T06:20:56;4.65;;;2.90;;
16272;SDS011;8244;50.044;9.006;2023-05-14T06:26:00;4.00;;;2.83;;
16272;SDS011;8244;50.044;9.006;2023-05-14T06:31:02;3.00;;;2.70;;
16272;SDS011;8244;50.044;9.006;2023-05-14T06:36:04;4.63;;;2.80;;
16272;SDS011;8244;50.044;9.006;2023-05-14T06:41:08;3.75;;;2.63;;
16272;SDS011;8244;50.044;9.006;2023-05-14T06:46:10;3.65;;;2.80;;
16272;SDS011;8244;50.044;9.006;2023-05-14T06:51:11;5.97;;;3.08;;
16272;SDS011;8244;50.044;9.006;2023-05-14T06:56:15;4.05;;;2.90;;
16272;SDS011;8244;50.044;9.006;2023-05-14T07:01:17;3.92;;;3.03;;
16272;SDS011;8244;50.044;9.006;2023-05-14T07:06:19;3.88;;;3.15;;
16272;SDS011;8244;50.044;9.006;2023-05-14T07:11:22;4.40;;;2.90;;
16272;SDS011;8244;50.044;9.006;2023-05-14T07:16:23;4.65;;;2.97;;
16272;SDS011;8244;50.044;9.006;2023-05-14T07:21:25;3.33;;;2.85;;
16272;SDS011;8244;50.044;9.006;2023-05-14T07:26:28;7.45;;;3.30;;
16272;SDS011;8244;50.044;9.006;2023-05-14T07:31:30;3.65;;;2.90;;
16272;SDS011;8244;50.044;9.006;2023-05-14T07:36:32;4.20;;;2.90;;
16272;SDS011;8244;50.044;9.006;2023-05-14T07:41:35;5.35;;;3.42;;
16272;SDS011;8244;50.044;9.006;2023-05-14T07:46:37;4.93;;;2.78;;
16272;SDS011;8244;50.044;9.006;2023-05-14T07:51:40;5.15;;;2.60;;
16272;SDS011;8244;50.044;9.006;2023-05-14T07:56:43;4.43;;;2.47;;
16272;SDS011;8244;50.044;9.006;2023-05-14T08:01:44;3.38;;;2.70;;
16272;SDS011;8244;50.044;9.006;2023-05-14T08:06:46;3.33;;;2.65;;
16272;SDS011;8244;50.044;9.006;2023-05-14T08:11:49;3.35;;;2.70;;
16272;SDS011;8244;50.044;9.006;2023-05-14T08:16:51;4.10;;;2.50;;
16272;SDS011;8244;50.044;9.006;2023-05-14T08:21:52;2.80;;;2.28;;
16272;SDS011;8244;50.044;9.006;2023-05-14T08:26:56;2.58;;;2.35;;
16272;SDS011;8244;50.044;9.006;2023-05-14T08:31:57;2.60;;;2.40;;
16272;SDS011;8244;50.044;9.006;2023-05-14T08:36:59;3.08;;;2.63;;
16272;SDS011;8244;50.044;9.006;2023-05-14T08:42:03;3.88;;;2.50;;
16272;SDS011;8244;50.044;9.006;2023-05-14T08:47:07;3.38;;;2.70;;
16272;SDS011;8244;50.044;9.006;2023-05-14T08:52:11;2.85;;;2.45;;
16272;SDS011;8244;50.044;9.006;2023-05-14T08:57:14;3.05;;;2.65;;
16272;SDS011;8244;50.044;9.006;2023-05-14T09:02:19;2.70;;;2.40;;
16272;SDS011;8244;50.044;9.006;2023-05-14T09:07:24;6.22;;;2.92;;
16272;SDS011;8244;50.044;9.006;2023-05-14T09:12:27;2.78;;;2.20;;
16272;SDS011;8244;50.044;9.006;2023-05-14T09:17:29;3.55;;;2.30;;
16272;SDS011;8244;50.044;9.006;2023-05-14T09:22:31;2.47;;;2.28;;
16272;SDS011;8244;50.044;9.006;2023-05-14T09:27:36;3.10;;;2.40;;
16272;SDS011;8244;50.044;9.006;2023-05-14T09:32:39;2.95;;;2.40;;
16272;SDS011;8244;50.044;9.006;2023-05-14T09:37:43;3.08;;;2.58;;
16272;SDS011;8244;50.044;9.006;2023-05-14T09:42:47;2.92;;;2.38;;
16272;SDS011;8244;50.044;9.006;2023-05-14T09:47:49;2.47;;;2.20;;
16272;SDS011;8244;50.044;9.006;2023-05-14T09:52:53;3.05;;;2.20;;
16272;SDS011;8244;50.044;9.006;2023-05-14T09:57:56;4.03;;;2.45;;
16272;SDS011;8244;50.044;9.006;2023-05-14T10:03:05;3.38;;;2.38;;
16272;SDS011;8244;50.044;9.006;2023-05-14T10:08:08;3.67;;;2.60;;
16272;SDS011;8244;50.044;9.006;2023-05-14T10:13:16;3.13;;;2.22;;
16272;SDS011;8244;50.044;9.006;2023-05-14T10:18:22;3.95;;;2.70;;
16272;SDS011;8244;50.044;9.006;2023-05-14T10:23:25;2.80;;;2.47;;
16272;SDS011;8244;50.044;9.006;2023-05-14T10:28:28;2.78;;;2.45;;
16272;SDS011;8244;50.044;9.006;2023-05-14T10:33:30;2.75;;;2.55;;
16272;SDS011;8244;50.044;9.006;2023-05-14T10:38:46;2.83;;;2.47;;
16272;SDS011;8244;50.044;9.006;2023-05-14T10:43:57;3.13;;;2.70;;
16272;SDS011;8244;50.044;9.006;2023-05-14T10:48:59;2.60;;;2.40;;
16272;SDS011;8244;50.044;9.006;2023-05-14T10:54:02;2.72;;;2.50;;
16272;SDS011;8244;50.044;9.006;2023-05-14T10:59:05;2.83;;;2.53;;
16272;SDS011;8244;50.044;9.006;2023-05-14T11:04:08;4.10;;;2.47;;
16272;SDS011;8244;50.044;9.006;2023-05-14T11:09:12;3.72;;;2.88;;
16272;SDS011;8244;50.044;9.006;2023-05-14T11:14:18;4.07;;;2.88;;
16272;SDS011;8244;50.044;9.006;2023-05-14T11:19:20;2.92;;;2.25;;
16272;SDS011;8244;50.044;9.006;2023-05-14T11:24:22;3.53;;;2.70;;
16272;SDS011;8244;50.044;9.006;2023-05-14T11:29:25;3.00;;;2.47;;
16272;SDS011;8244;50.044;9.006;2023-05-14T11:34:26;4.13;;;2.80;;
16272;SDS011;8244;50.044;9.006;2023-05-14T11:39:29;4.00;;;2.77;;
16272;SDS011;8244;50.044;9.006;2023-05-14T11:44:33;4.20;;;2.60;;
16272;SDS011;8244;50.044;9.006;2023-05-14T11:49:35;3.28;;;2.72;;
16272;SDS011;8244;50.044;9.006;2023-05-14T11:54:47;2.88;;;2.58;;
16272;SDS011;8244;50.044;9.006;2023-05-14T11:59:55;4.28;;;2.75;;
16272;SDS011;8244;50.044;9.006;2023-05-14T12:04:58;3.85;;;2.67;;
16272;SDS011;8244;50.044;9.006;2023-05-14T12:10:01;4.63;;;2.90;;
16272;SDS011;8244;50.044;9.006;2023-05-14T12:15:10;2.85;;;2.55;;
16272;SDS011;8244;50.044;9.006;2023-05-14T12:20:13;3.05;;;2.75;;
16272;SDS011;8244;50.044;9.006;2023-05-14T12:25:14;2.88;;;2.55;;
16272;SDS011;8244;50.044;9.006;2023-05-14T12:30:18;3.72;;;2.30;;
16272;SDS011;8244;50.044;9.006;2023-05-14T12:35:20;3.65;;;2.70;;
16272;SDS011;8244;50.044;9.006;2023-05-14T12:40:22;4.15;;;2.30;;
16272;SDS011;8244;50.044;9.006;2023-05-14T12:45:25;4.20;;;2.40;;
16272;SDS011;8244;50.044;9.006;2023-05-14T12:50:27;3.58;;;2.45;;
16272;SDS011;8244;50.044;9.006;2023-05-14T12:55:29;5.20;;;2.20;;
16272;SDS011;8244;50.044;9.006;2023-05-14T13:00:34;3.28;;;2.17;;
16272;SDS011;8244;50.044;9.006;2023-05-14T13:05:36;4.03;;;2.42;;
16272;SDS011;8244;50.044;9.006;2023-05-14T13:10:37;2.78;;;2.30;;
16272;SDS011;8244;50.044;9.006;2023-05-14T13:15:42;2.60;;;2.40;;
16272;SDS011;8244;50.044;9.006;2023-05-14T13:20:45;3.10;;;2.45;;
16272;SDS011;8244;50.044;9.006;2023-05-14T13:25:47;3.47;;;2.45;;
16272;SDS011;8244;50.044;9.006;2023-05-14T13:31:03;2.85;;;2.30;;
16272;SDS011;8244;50.044;9.006;2023-05-14T13:36:07;2.15;;;1.95;;
16272;SDS011;8244;50.044;9.006;2023-05-14T13:41:09;2.20;;;1.85;;
16272;SDS011;8244;50.044;9.006;2023-05-14T13:46:12;2.05;;;1.92;;
16272;SDS011;8244;50.044;9.006;2023-05-14T13:51:14;2.47;;;2.28;;
16272;SDS011;8244;50.044;9.006;2023-05-14T13:56:16;3.00;;;1.90;;
16272;SDS011;8244;50.044;9.006;2023-05-14T14:01:21;2.25;;;2.05;;
16272;SDS011;8244;50.044;9.006;2023-05-14T14:06:24;1.92;;;1.70;;
16272;SDS011;8244;50.044;9.006;2023-05-14T14:11:27;3.03;;;1.85;;
16272;SDS011;8244;50.044;9.006;2023-05-14T14:16:30;2.20;;;2.00;;
16272;SDS011;8244;50.044;9.006;2023-05-14T14:21:32;2.20;;;2.00;;
16272;SDS011;8244;50.044;9.006;2023-05-14T14:26:34;2.10;;;1.90;;
16272;SDS011;8244;50.044;9.006;2023-05-14T14:31:37;3.75;;;1.92;;
16272;SDS011;8244;50.044;9.006;2023-05-14T14:36:39;1.92;;;1.83;;
16272;SDS011;8244;50.044;9.006;2023-05-14T14:41:40;2.70;;;2.05;;
16272;SDS011;8244;50.044;9.006;2023-05-14T14:46:44;4.80;;;2.00;;
16272;SDS011;8244;50.044;9.006;2023-05-14T14:51:47;2.00;;;1.85;;
16272;SDS011;8244;50.044;9.006;2023-05-14T14:56:48;2.10;;;1.80;;
16272;SDS011;8244;50.044;9.006;2023-05-14T15:01:53;1.80;;;1.70;;
16272;SDS011;8244;50.044;9.006;2023-05-14T15:06:55;2.05;;;1.77;;
16272;SDS011;8244;50.044;9.006;2023-05-14T15:11:57;2.30;;;2.10;;
16272;SDS011;8244;50.044;9.006;2023-05-14T15:17:00;2.72;;;1.90;;
16272;SDS011;8244;50.044;9.006;2023-05-14T15:22:02;2.13;;;1.90;;
16272;SDS011;8244;50.044;9.006;2023-05-14T15:27:04;1.70;;;1.60;;
16272;SDS011;8244;50.044;9.006;2023-05-14T15:32:07;2.60;;;1.60;;
16272;SDS011;8244;50.044;9.006;2023-05-14T15:37:09;4.47;;;1.77;;
16272;SDS011;8244;50.044;9.006;2023-05-14T15:42:11;1.80;;;1.70;;
16272;SDS011;8244;50.044;9.006;2023-05-14T15:47:15;2.08;;;1.50;;
16272;SDS011;8244;50.044;9.006;2023-05-14T15:52:16;1.98;;;1.48;;
16272;SDS011;8244;50.044;9.006;2023-05-14T15:57:18;2.47;;;1.60;;
16272;SDS011;8244;50.044;9.006;2023-05-14T16:02:21;2.90;;;1.50;;
16272;SDS011;8244;50.044;9.006;2023-05-14T16:07:23;1.67;;;1.58;;
16272;SDS011;8244;50.044;9.006;2023-05-14T16:12:25;3.03;;;1.67;;
16272;SDS011;8244;50.044;9.006;2023-05-14T16:17:28;1.98;;;1.50;;
16272;SDS011;8244;50.044;9.006;2023-05-14T16:22:31;1.92;;;1.50;;
16272;SDS011;8244;50.044;9.006;2023-05-14T16:27:33;1.65;;;1.55;;
16272;SDS011;8244;50.044;9.006;2023-05-14T16:32:36;1.30;;;1.20;;
16272;SDS011;8244;50.044;9.006;2023-05-14T16:37:40;1.60;;;1.50;;
16272;SDS011;8244;50.044;9.006;2023-05-14T16:42:42;2.38;;;1.38;;
16272;SDS011;8244;50.044;9.006;2023-05-14T16:47:45;5.13;;;1.40;;
16272;SDS011;8244;50.044;9.006;2023-05-14T16:52:46;1.73;;;1.40;;
16272;SDS011;8244;50.044;9.006;2023-05-14T16:57:48;2.25;;;1.40;;
16272;SDS011;8244;50.044;9.006;2023-05-14T17:02:53;2.53;;;1.27;;
16272;SDS011;8244;50.044;9.006;2023-05-14T17:07:55;1.65;;;1.55;;
16272;SDS011;8244;50.044;9.006;2023-05-14T17:12:57;2.45;;;1.60;;
16272;SDS011;8244;50.044;9.006;2023-05-14T17:18:00;5.90;;;1.70;;
16272;SDS011;8244;50.044;9.006;2023-05-14T17:23:01;3.28;;;1.80;;
16272;SDS011;8244;50.044;9.006;2023-05-14T17:28:03;1.77;;;1.60;;
16272;SDS011;8244;50.044;9.006;2023-05-14T17:33:06;1.95;;;1.63;;
16272;SDS011;8244;50.044;9.006;2023-05-14T17:38:08;2.47;;;1.95;;
16272;SDS011;8244;50.044;9.006;2023-05-14T17:43:10;2.13;;;1.92;;
16272;SDS011;8244;50.044;9.006;2023-05-14T17:48:13;2.40;;;1.70;;
16272;SDS011;8244;50.044;9.006;2023-05-14T17:53:15;3.17;;;1.70;;
16272;SDS011;8244;50.044;9.006;2023-05-14T17:58:16;3.10;;;1.90;;
16272;SDS011;8244;50.044;9.006;2023-05-14T18:03:21;2.88;;;1.90;;
16272;SDS011;8244;50.044;9.006;2023-05-14T18:08:23;1.98;;;1.55;;
16272;SDS011;8244;50.044;9.006;2023-05-14T18:13:25;1.70;;;1.60;;
16272;SDS011;8244;50.044;9.006;2023-05-14T18:18:28;1.95;;;1.75;;
16272;SDS011;8244;50.044;9.006;2023-05-14T18:23:30;4.13;;;1.80;;
16272;SDS011;8244;50.044;9.006;2023-05-14T18:28:32;2.90;;;1.83;;
16272;SDS011;8244;50.044;9.006;2023-05-14T18:33:35;3.75;;;1.88;;
16272;SDS011;8244;50.044;9.006;2023-05-14T18:38:37;2.10;;;2.00;;
16272;SDS011;8244;50.044;9.006;2023-05-14T18:43:40;2.70;;;1.90;;
16272;SDS011;8244;50.044;9.006;2023-05-14T18:48:43;1.98;;;1.77;;
16272;SDS011;8244;50.044;9.006;2023-05-14T18:53:44;2.88;;;1.98;;
16272;SDS011;8244;50.044;9.006;2023-05-14T18:58:46;4.18;;;2.05;;
16272;SDS011;8244;50.044;9.006;2023-05-14T19:03:49;3.42;;;2.50;;
16272;SDS011;8244;50.044;9.006;2023-05-14T19:08:52;5.10;;;2.30;;
16272;SDS011;8244;50.044;9.006;2023-05-14T19:13:54;4.35;;;2.40;;
16272;SDS011;8244;50.044;9.006;2023-05-14T19:18:57;3.25;;;2.20;;
16272;SDS011;8244;50.044;9.006;2023-05-14T19:23:59;3.15;;;2.60;;
16272;SDS011;8244;50.044;9.006;2023-05-14T19:29:01;4.50;;;2.60;;
16272;SDS011;8244;50.044;9.006;2023-05-14T19:34:04;2.30;;;2.10;;
16272;SDS011;8244;50.044;9.006;2023-05-14T19:39:06;4.35;;;2.97;;
16272;SDS011;8244;50.044;9.006;2023-05-14T19:44:08;4.25;;;3.10;;
16272;SDS011;8244;50.044;9.006;2023-05-14T19:49:11;2.67;;;2.28;;
16272;SDS011;8244;50.044;9.006;2023-05-14T19:54:13;4.35;;;2.45;;
16272;SDS011;8244;50.044;9.006;2023-05-14T19:59:15;5.43;;;2.90;;
16272;SDS011;8244;50.044;9.006;2023-05-14T20:04:19;4.70;;;2.80;;
16272;SDS011;8244;50.044;9.006;2023-05-14T20:09:21;4.22;;;2.50;;
16272;SDS011;8244;50.044;9.006;2023-05-14T20:14:31;5.05;;;3.00;;
16272;SDS011;8244;50.044;9.006;2023-05-14T20:19:34;5.47;;;2.83;;
16272;SDS011;8244;50.044;9.006;2023-05-14T20:24:38;4.38;;;2.90;;
16272;SDS011;8244;50.044;9.006;2023-05-14T20:29:40;5.53;;;3.13;;
16272;SDS011;8244;50.044;9.006;2023-05-14T20:34:44;4.97;;;2.63;;
16272;SDS011;8244;50.044;9.006;2023-05-14T20:39:46;4.07;;;2.72;;
16272;SDS011;8244;50.044;9.006;2023-05-14T20:44:49;4.40;;;2.75;;
16272;SDS011;8244;50.044;9.006;2023-05-14T20:49:53;5.90;;;3.60;;
16272;SDS011;8244;50.044;9.006;2023-05-14T20:54:55;4.18;;;3.08;;
16272;SDS011;8244;50.044;9.006;2023-05-14T20:59:56;5.60;;;3.47;;
16272;SDS011;8244;50.044;9.006;2023-05-14T21:04:59;5.97;;;2.88;;
16272;SDS011;8244;50.044;9.006;2023-05-14T21:10:01;5.15;;;3.30;;
16272;SDS011;8244;50.044;9.006;2023-05-14T21:15:03;6.20;;;3.40;;
16272;SDS011;8244;50.044;9.006;2023-05-14T21:20:07;4.80;;;3.70;;
16272;SDS011;8244;50.044;9.006;2023-05-14T21:25:11;6.43;;;3.88;;
16272;SDS011;8244;50.044;9.006;2023-05-14T21:30:12;6.45;;;3.53;;
16272;SDS011;8244;50.044;9.006;2023-05-14T21:35:23;7.03;;;3.70;;
16272;SDS011;8244;50.044;9.006;2023-05-14T21:40:24;5.70;;;3.30;;
16272;SDS011;8244;50.044;9.006;2023-05-14T21:45:26;6.45;;;3.55;;
16272;SDS011;8244;50.044;9.006;2023-05-14T21:50:29;5.72;;;3.50;;
16272;SDS011;8244;50.044;9.006;2023-05-14T21:55:31;6.40;;;3.70;;
16272;SDS011;8244;50.044;9.006;2023-05-14T22:00:33;6.57;;;4.00;;
16272;SDS011;8244;50.044;9.006;2023-05-14T22:05:36;6.85;;;3.88;;
16272;SDS011;8244;50.044;9.006;2023-05-14T22:10:37;7.10;;;4.20;;
16272;SDS011;8244;50.044;9.006;2023-05-14T22:15:39;5.53;;;3.92;;
16272;SDS011;8244;50.044;9.006;2023-05-14T22:20:42;7.25;;;4.38;;
16272;SDS011;8244;50.044;9.006;2023-05-14T22:25:44;5.32;;;3.67;;
16272;SDS011;8244;50.044;9.006;2023-05-14T22:30:46;7.45;;;4.55;;
16272;SDS011;8244;50.044;9.006;2023-05-14T22:35:52;8.55;;;4.60;;
16272;SDS011;8244;50.044;9.006;2023-05-14T22:40:54;6.93;;;4.18;;
16272;SDS011;8244;50.044;9.006;2023-05-14T22:45:55;7.93;;;4.88;;
16272;SDS011;8244;50.044;9.006;2023-05-14T22:50:58;6.60;;;4.20;;
16272;SDS011;8244;50.044;9.006;2023-05-14T22:56:00;5.20;;;4.18;;
16272;SDS011;8244;50.044;9.006;2023-05-14T23:01:02;7.70;;;4.95;;
16272;SDS011;8244;50.044;9.006;2023-05-14T23:06:05;5.63;;;4.20;;
16272;SDS011;8244;50.044;9.006;2023-05-14T23:11:07;8.93;;;4.75;;
16272;SDS011;8244;50.044;9.006;2023-05-14T23:16:08;10.60;;;5.15;;
16272;SDS011;8244;50.044;9.006;2023-05-14T23:21:11;6.70;;;4.40;;
16272;SDS011;8244;50.044;9.006;2023-05-14T23:26:15;6.95;;;4.70;;
16272;SDS011;8244;50.044;9.006;2023-05-14T23:31:16;5.93;;;3.92;;
16272;SDS011;8244;50.044;9.006;2023-05-14T23:36:20;7.47;;;4.20;;
16272;SDS011;8244;50.044;9.006;2023-05-14T23:41:22;7.60;;;5.15;;
16272;SDS011;8244;50.044;9.006;2023-05-14T23:46:24;8.23;;;5.32;;
16272;SDS011;8244;50.044;9.006;2023-05-14T23:51:27;7.05;;;4.82;;
16272;SDS011;8244;50.044;9.006;2023-05-14T23:56:29;8.02;;;4.80;;
